createdAt,value
2022-11-24T00:00:06.829Z,94.77
2022-11-24T00:01:06.696Z,95.08
2022-11-24T00:02:06.836Z,94.87
2022-11-24T00:03:06.948Z,94.67
2022-11-24T00:04:06.765Z,94.36
2022-11-24T00:05:06.646Z,94.36
2022-11-24T00:06:06.928Z,94.26
2022-11-24T00:07:06.702Z,94.36
2022-11-24T00:08:07.231Z,94.26
2022-11-24T00:09:06.609Z,94.36
2022-11-24T00:10:06.615Z,94.36
2022-11-24T00:11:06.585Z,94.36
2022-11-24T00:12:06.662Z,94.56
2022-11-24T00:13:06.726Z,94.56
2022-11-24T00:14:06.637Z,94.46
2022-11-24T00:15:06.542Z,94.46
2022-11-24T00:16:06.766Z,94.26
2022-11-24T00:17:06.534Z,94.26
2022-11-24T00:18:06.541Z,94.40
2022-11-24T00:19:06.495Z,94.51
2022-11-24T00:20:06.486Z,94.51
2022-11-24T00:21:06.474Z,94.60
2022-11-24T00:22:06.513Z,94.60
2022-11-24T00:23:06.467Z,94.71
2022-11-24T00:24:06.498Z,94.81
2022-11-24T00:25:06.443Z,94.81
2022-11-24T00:26:06.447Z,94.81
2022-11-24T00:27:06.407Z,94.81
2022-11-24T00:28:06.508Z,94.85
2022-11-24T00:29:06.429Z,94.85
2022-11-24T00:30:06.448Z,95.06
2022-11-24T00:31:06.475Z,95.48
2022-11-24T00:32:06.397Z,95.78
2022-11-24T00:33:06.364Z,95.99
2022-11-24T00:34:06.362Z,96.09
2022-11-24T00:35:06.330Z,96.30
2022-11-24T00:36:06.376Z,96.41
2022-11-24T00:37:06.305Z,96.66
2022-11-24T00:38:06.335Z,96.92
2022-11-24T00:39:06.292Z,96.71
2022-11-24T00:40:06.381Z,96.41
2022-11-24T00:41:06.258Z,96.30
2022-11-24T00:42:06.269Z,96.30
2022-11-24T00:43:06.240Z,95.95
2022-11-24T00:44:06.385Z,95.74
2022-11-24T00:45:13.537Z,95.74
2022-11-24T00:46:07.397Z,95.78
2022-11-24T00:47:06.285Z,95.64
2022-11-24T00:48:06.201Z,95.74
2022-11-24T00:49:06.199Z,95.78
2022-11-24T00:50:06.291Z,95.64
2022-11-24T00:51:06.163Z,95.43
2022-11-24T00:52:06.283Z,95.43
2022-11-24T00:53:06.141Z,95.37
2022-11-24T00:54:06.155Z,95.37
2022-11-24T00:55:06.130Z,95.37
2022-11-24T00:56:06.123Z,95.23
2022-11-24T00:57:06.082Z,94.92
2022-11-24T00:58:06.072Z,94.81
2022-11-24T00:59:06.082Z,95.06
2022-11-24T01:00:06.082Z,95.17
2022-11-24T01:01:06.107Z,95.06
2022-11-24T01:02:06.148Z,95.06
2022-11-24T01:03:06.029Z,94.96
2022-11-24T01:04:06.065Z,94.76
2022-11-24T01:05:06.009Z,94.76
2022-11-24T01:06:06.097Z,94.40
2022-11-24T01:07:06.066Z,93.54
2022-11-24T01:08:06.050Z,93.23
2022-11-24T01:09:05.967Z,93.16
2022-11-24T01:10:05.935Z,93.37
2022-11-24T01:11:05.935Z,93.58
2022-11-24T01:12:05.996Z,93.79
2022-11-24T01:13:05.903Z,93.99
2022-11-24T01:14:05.958Z,94.24
2022-11-24T01:15:05.884Z,94.34
2022-11-24T01:16:05.918Z,94.45
2022-11-24T01:17:05.864Z,94.76
2022-11-24T01:18:05.872Z,94.96
2022-11-24T01:19:05.846Z,95.21
2022-11-24T01:20:05.889Z,95.31
2022-11-24T01:21:09.813Z,95.52
2022-11-24T01:22:05.817Z,95.52
2022-11-24T01:23:05.800Z,95.83
2022-11-24T01:24:05.897Z,95.93
2022-11-24T01:25:05.775Z,96.18
2022-11-24T01:26:05.826Z,96.39
2022-11-24T01:27:05.755Z,96.49
2022-11-24T01:28:05.822Z,96.59
2022-11-24T01:29:05.747Z,96.80
2022-11-24T01:30:05.782Z,96.91
2022-11-24T01:31:05.750Z,96.91
2022-11-24T01:32:05.719Z,97.01
2022-11-24T01:33:05.687Z,96.91
2022-11-24T01:34:05.727Z,97.01
2022-11-24T01:35:05.826Z,97.05
2022-11-24T01:36:05.716Z,97.16
2022-11-24T01:37:05.651Z,97.16
2022-11-24T01:38:05.648Z,97.26
2022-11-24T01:39:05.729Z,97.26
2022-11-24T01:40:05.636Z,97.21
2022-11-24T01:41:05.624Z,97.42
2022-11-24T01:42:05.639Z,97.21
2022-11-24T01:43:05.577Z,97.21
2022-11-24T01:44:05.673Z,97.16
2022-11-24T01:45:05.558Z,97.16
2022-11-24T01:46:05.616Z,97.26
2022-11-24T01:47:05.537Z,97.16
2022-11-24T01:48:05.613Z,97.05
2022-11-24T01:49:05.519Z,97.05
2022-11-24T01:50:05.551Z,97.05
2022-11-24T01:51:05.508Z,97.05
2022-11-24T01:52:05.748Z,97.05
2022-11-24T01:53:05.688Z,97.05
2022-11-24T01:54:05.543Z,97.05
2022-11-24T01:55:05.442Z,97.05
2022-11-24T01:56:05.441Z,97.16
2022-11-24T01:57:05.424Z,97.47
2022-11-24T01:58:05.419Z,97.36
2022-11-24T01:59:05.419Z,97.56
2022-11-24T02:00:05.448Z,97.56
2022-11-24T02:01:05.603Z,97.47
2022-11-24T02:02:05.510Z,97.47
2022-11-24T02:03:05.611Z,97.26
2022-11-24T02:04:05.393Z,97.26
2022-11-24T02:05:05.339Z,97.26
2022-11-24T02:06:05.331Z,97.26
2022-11-24T02:07:05.310Z,97.36
2022-11-24T02:08:05.330Z,97.26
2022-11-24T02:09:05.301Z,97.20
2022-11-24T02:10:05.308Z,97.20
2022-11-24T02:11:05.271Z,96.99
2022-11-24T02:12:05.300Z,96.89
2022-11-24T02:13:05.252Z,96.89
2022-11-24T02:14:05.253Z,96.83
2022-11-24T02:15:05.238Z,96.94
2022-11-24T02:16:05.292Z,97.04
2022-11-24T02:17:05.211Z,97.25
2022-11-24T02:18:05.197Z,97.45
2022-11-24T02:19:05.190Z,97.55
2022-11-24T02:20:05.231Z,97.66
2022-11-24T02:21:05.168Z,97.76
2022-11-24T02:22:05.158Z,97.86
2022-11-24T02:23:05.151Z,98.07
2022-11-24T02:24:05.146Z,98.18
2022-11-24T02:25:05.113Z,98.02
2022-11-24T02:26:05.145Z,98.02
2022-11-24T02:27:05.101Z,97.92
2022-11-24T02:28:05.083Z,97.92
2022-11-24T02:29:05.094Z,98.13
2022-11-24T02:30:05.076Z,98.02
2022-11-24T02:31:05.088Z,97.88
2022-11-24T02:32:05.119Z,97.77
2022-11-24T02:33:05.033Z,97.67
2022-11-24T02:34:05.027Z,97.26
2022-11-24T02:35:05.026Z,96.95
2022-11-24T02:36:05.000Z,96.70
2022-11-24T02:37:04.996Z,96.49
2022-11-24T02:38:05.022Z,96.28
2022-11-24T02:39:04.994Z,96.14
2022-11-24T02:40:04.963Z,95.83
2022-11-24T02:41:04.973Z,95.73
2022-11-24T02:42:05.123Z,95.37
2022-11-24T02:43:04.915Z,95.17
2022-11-24T02:44:05.072Z,95.17
2022-11-24T02:45:04.935Z,94.96
2022-11-24T02:46:04.955Z,94.85
2022-11-24T02:47:04.880Z,94.51
2022-11-24T02:48:04.926Z,94.20
2022-11-24T02:49:04.923Z,93.99
2022-11-24T02:50:04.992Z,93.84
2022-11-24T02:51:04.834Z,93.43
2022-11-24T02:52:04.838Z,92.82
2022-11-24T02:53:04.806Z,92.71
2022-11-24T02:54:04.835Z,92.46
2022-11-24T02:55:04.795Z,92.16
2022-11-24T02:56:04.796Z,92.05
2022-11-24T02:57:04.769Z,92.61
2022-11-24T02:58:04.771Z,92.71
2022-11-24T02:59:04.753Z,92.82
2022-11-24T03:00:04.757Z,92.92
2022-11-24T03:01:04.793Z,92.92
2022-11-24T03:02:04.835Z,92.92
2022-11-24T03:03:04.760Z,93.02
2022-11-24T03:04:04.723Z,93.12
2022-11-24T03:05:04.697Z,93.02
2022-11-24T03:06:04.684Z,93.02
2022-11-24T03:07:04.658Z,92.92
2022-11-24T03:08:04.747Z,93.02
2022-11-24T03:09:04.638Z,92.92
2022-11-24T03:10:04.639Z,92.82
2022-11-24T03:11:04.619Z,92.61
2022-11-24T03:12:04.641Z,92.61
2022-11-24T03:13:04.590Z,92.61
2022-11-24T03:14:04.650Z,92.61
2022-11-24T03:15:04.580Z,92.82
2022-11-24T03:16:04.673Z,92.92
2022-11-24T03:17:04.550Z,93.12
2022-11-24T03:18:04.563Z,93.12
2022-11-24T03:19:04.528Z,93.16
2022-11-24T03:20:05.410Z,93.16
2022-11-24T03:21:04.541Z,92.96
2022-11-24T03:22:04.541Z,92.92
2022-11-24T03:23:04.490Z,93.06
2022-11-24T03:24:04.548Z,93.16
2022-11-24T03:25:04.482Z,93.37
2022-11-24T03:26:04.462Z,93.48
2022-11-24T03:27:04.442Z,93.79
2022-11-24T03:28:04.581Z,93.68
2022-11-24T03:29:04.420Z,93.68
2022-11-24T03:30:04.492Z,93.68
2022-11-24T03:31:04.428Z,93.58
2022-11-24T03:32:04.481Z,93.68
2022-11-24T03:33:04.384Z,93.79
2022-11-24T03:34:05.313Z,93.88
2022-11-24T03:35:04.365Z,93.99
2022-11-24T03:36:04.452Z,94.09
2022-11-24T03:37:04.344Z,94.30
2022-11-24T03:38:04.773Z,94.34
2022-11-24T03:39:04.312Z,94.45
2022-11-24T03:40:04.375Z,94.45
2022-11-24T03:41:04.293Z,94.65
2022-11-24T03:42:04.301Z,94.65
2022-11-24T03:43:04.264Z,94.65
2022-11-24T03:44:04.292Z,94.60
2022-11-24T03:45:29.850Z,94.60
2022-11-24T03:46:05.253Z,94.60
2022-11-24T03:47:04.234Z,94.76
2022-11-24T03:48:04.313Z,94.92
2022-11-24T03:49:04.195Z,94.85
2022-11-24T03:50:04.206Z,94.85
2022-11-24T03:51:04.184Z,95.06
2022-11-24T03:52:07.962Z,95.06
2022-11-24T03:53:04.158Z,95.17
2022-11-24T03:54:04.156Z,95.17
2022-11-24T03:55:04.139Z,95.17
2022-11-24T03:56:04.153Z,95.06
2022-11-24T03:57:04.116Z,95.27
2022-11-24T03:58:04.159Z,95.37
2022-11-24T03:59:04.093Z,95.37
2022-11-24T04:00:04.122Z,95.37
2022-11-24T04:01:04.069Z,95.37
2022-11-24T04:02:04.131Z,95.48
2022-11-24T04:03:04.076Z,95.68
2022-11-24T04:04:04.052Z,95.58
2022-11-24T04:05:04.048Z,95.58
2022-11-24T04:06:04.026Z,95.58
2022-11-24T04:07:04.006Z,95.58
2022-11-24T04:08:04.057Z,95.58
2022-11-24T04:09:03.986Z,95.58
2022-11-24T04:10:04.013Z,95.58
2022-11-24T04:11:03.967Z,95.68
2022-11-24T04:12:03.987Z,95.68
2022-11-24T04:13:03.947Z,95.68
2022-11-24T04:14:06.686Z,95.68
2022-11-24T04:15:05.026Z,95.48
2022-11-24T04:16:03.942Z,95.37
2022-11-24T04:17:03.906Z,95.37
2022-11-24T04:18:03.932Z,95.27
2022-11-24T04:19:03.880Z,95.48
2022-11-24T04:20:03.920Z,95.48
2022-11-24T04:21:03.871Z,95.48
2022-11-24T04:22:04.015Z,95.48
2022-11-24T04:23:03.839Z,95.48
2022-11-24T04:24:03.849Z,95.48
2022-11-24T04:25:03.811Z,95.48
2022-11-24T04:26:03.893Z,95.58
2022-11-24T04:27:03.791Z,95.58
2022-11-24T04:28:03.780Z,95.58
2022-11-24T04:29:03.773Z,95.48
2022-11-24T04:30:03.770Z,95.48
2022-11-24T04:31:03.807Z,95.37
2022-11-24T04:32:03.782Z,95.37
2022-11-24T04:33:03.732Z,95.37
2022-11-24T04:34:03.721Z,95.48
2022-11-24T04:35:03.702Z,95.48
2022-11-24T04:36:03.698Z,95.48
2022-11-24T04:37:03.693Z,95.68
2022-11-24T04:38:03.715Z,95.58
2022-11-24T04:39:24.376Z,95.58
2022-11-24T04:40:04.683Z,95.73
2022-11-24T04:41:03.653Z,95.83
2022-11-24T04:42:03.696Z,95.93
2022-11-24T04:43:03.621Z,95.93
2022-11-24T04:44:03.728Z,96.34
2022-11-24T04:45:03.599Z,96.55
2022-11-24T04:46:03.795Z,96.75
2022-11-24T04:47:03.581Z,96.75
2022-11-24T04:48:03.564Z,96.96
2022-11-24T04:49:03.552Z,97.06
2022-11-24T04:50:03.537Z,97.38
2022-11-24T04:51:03.545Z,97.48
2022-11-24T04:52:03.923Z,97.38
2022-11-24T04:53:03.513Z,97.38
2022-11-24T04:54:03.714Z,97.27
2022-11-24T04:55:03.483Z,97.23
2022-11-24T04:56:03.514Z,97.23
2022-11-24T04:57:03.467Z,97.02
2022-11-24T04:58:03.488Z,97.02
2022-11-24T04:59:07.952Z,97.13
2022-11-24T05:00:04.435Z,97.02
2022-11-24T05:01:03.425Z,97.02
2022-11-24T05:02:03.720Z,97.02
2022-11-24T05:03:03.406Z,96.81
2022-11-24T05:04:03.415Z,96.81
2022-11-24T05:05:03.395Z,96.67
2022-11-24T05:06:03.399Z,96.56
2022-11-24T05:07:03.364Z,96.56
2022-11-24T05:08:03.557Z,96.36
2022-11-24T05:09:03.334Z,96.36
2022-11-24T05:10:03.329Z,96.25
2022-11-24T05:11:03.356Z,96.15
2022-11-24T05:12:03.355Z,95.95
2022-11-24T05:13:03.288Z,95.84
2022-11-24T05:14:03.291Z,95.74
2022-11-24T05:15:03.282Z,95.74
2022-11-24T05:16:03.300Z,95.70
2022-11-24T05:17:03.265Z,95.59
2022-11-24T05:18:03.403Z,95.49
2022-11-24T05:19:03.226Z,95.39
2022-11-24T05:20:03.207Z,95.28
2022-11-24T05:21:03.221Z,95.18
2022-11-24T05:22:03.185Z,95.18
2022-11-24T05:23:03.186Z,94.98
2022-11-24T05:24:03.200Z,94.98
2022-11-24T05:25:03.159Z,94.77
2022-11-24T05:26:03.158Z,94.77
2022-11-24T05:27:03.137Z,94.87
2022-11-24T05:28:03.160Z,94.98
2022-11-24T05:29:03.117Z,94.98
2022-11-24T05:30:03.110Z,94.98
2022-11-24T05:31:03.154Z,95.08
2022-11-24T05:32:03.441Z,95.08
2022-11-24T05:33:03.079Z,95.08
2022-11-24T05:34:03.111Z,95.08
2022-11-24T05:35:03.052Z,95.08
2022-11-24T05:36:03.115Z,95.08
2022-11-24T05:37:03.041Z,95.08
2022-11-24T05:38:03.024Z,94.98
2022-11-24T05:39:03.009Z,95.08
2022-11-24T05:40:03.006Z,94.83
2022-11-24T05:41:03.001Z,94.83
2022-11-24T05:42:02.987Z,94.83
2022-11-24T05:43:02.970Z,94.83
2022-11-24T05:44:02.952Z,94.73
2022-11-24T05:45:02.941Z,94.73
2022-11-24T05:46:02.964Z,94.52
2022-11-24T05:47:02.959Z,94.62
2022-11-24T05:48:02.901Z,94.62
2022-11-24T05:49:02.894Z,94.62
2022-11-24T05:50:02.888Z,94.68
2022-11-24T05:51:07.870Z,94.89
2022-11-24T05:52:03.882Z,95.14
2022-11-24T05:53:02.860Z,95.30
2022-11-24T05:54:02.890Z,95.50
2022-11-24T05:55:02.831Z,95.40
2022-11-24T05:56:02.886Z,95.30
2022-11-24T05:57:02.804Z,95.20
2022-11-24T05:58:02.791Z,95.20
2022-11-24T05:59:08.219Z,95.40
2022-11-24T06:00:03.796Z,95.61
2022-11-24T06:01:02.774Z,95.71
2022-11-24T06:02:03.024Z,95.40
2022-11-24T06:03:02.849Z,95.46
2022-11-24T06:04:02.731Z,95.56
2022-11-24T06:05:02.725Z,95.92
2022-11-24T06:06:02.843Z,96.02
2022-11-24T06:07:02.705Z,96.43
2022-11-24T06:08:02.715Z,96.73
2022-11-24T06:09:02.682Z,96.94
2022-11-24T06:10:03.161Z,97.25
2022-11-24T06:11:02.664Z,97.25
2022-11-24T06:12:02.661Z,97.25
2022-11-24T06:13:02.694Z,97.25
2022-11-24T06:14:05.773Z,97.15
2022-11-24T06:15:03.616Z,97.15
2022-11-24T06:16:02.767Z,97.05
2022-11-24T06:17:02.586Z,97.15
2022-11-24T06:18:02.614Z,97.25
2022-11-24T06:19:02.574Z,97.25
2022-11-24T06:20:02.612Z,97.36
2022-11-24T06:21:10.663Z,97.56
2022-11-24T06:22:03.538Z,97.66
2022-11-24T06:23:02.546Z,97.77
2022-11-24T06:24:02.530Z,97.81
2022-11-24T06:25:02.496Z,97.91
2022-11-24T06:26:02.544Z,98.02
2022-11-24T06:27:02.477Z,98.02
2022-11-24T06:28:02.474Z,98.02
2022-11-24T06:29:02.486Z,98.02
2022-11-24T06:30:02.459Z,98.02
2022-11-24T06:31:02.437Z,98.12
2022-11-24T06:32:02.591Z,98.12
2022-11-24T06:33:02.418Z,98.12
2022-11-24T06:34:02.468Z,98.12
2022-11-24T06:35:02.389Z,98.22
2022-11-24T06:36:03.435Z,98.22
2022-11-24T06:37:02.377Z,98.12
2022-11-24T06:38:02.357Z,98.02
2022-11-24T06:39:02.350Z,98.02
2022-11-24T06:40:02.427Z,98.02
2022-11-24T06:41:02.350Z,98.02
2022-11-24T06:42:02.445Z,98.12
2022-11-24T06:43:02.300Z,98.22
2022-11-24T06:44:02.376Z,98.22
2022-11-24T06:45:07.432Z,98.33
2022-11-24T06:46:03.360Z,98.33
2022-11-24T06:47:02.259Z,98.22
2022-11-24T06:48:02.289Z,98.37
2022-11-24T06:49:02.243Z,98.47
2022-11-24T06:50:02.241Z,98.37
2022-11-24T06:51:02.219Z,98.47
2022-11-24T06:52:02.199Z,98.47
2022-11-24T06:53:02.191Z,98.58
2022-11-24T06:54:02.240Z,98.58
2022-11-24T06:55:02.161Z,98.68
2022-11-24T06:56:02.276Z,98.68
2022-11-24T06:57:02.158Z,98.68
2022-11-24T06:58:02.158Z,98.68
2022-11-24T06:59:02.149Z,98.58
2022-11-24T07:00:02.157Z,98.58
2022-11-24T07:01:02.237Z,98.47
2022-11-24T07:02:02.112Z,98.27
2022-11-24T07:03:02.102Z,98.16
2022-11-24T07:04:02.100Z,98.06
2022-11-24T07:05:02.056Z,97.75
2022-11-24T07:06:02.055Z,97.65
2022-11-24T07:07:02.065Z,97.44
2022-11-24T07:08:02.030Z,97.34
2022-11-24T07:09:02.030Z,97.24
2022-11-24T07:10:02.063Z,96.93
2022-11-24T07:11:01.994Z,96.83
2022-11-24T07:12:02.053Z,96.78
2022-11-24T07:13:01.974Z,96.72
2022-11-24T07:14:01.961Z,96.93
2022-11-24T07:15:01.953Z,96.93
2022-11-24T07:16:02.011Z,96.72
2022-11-24T07:17:02.015Z,96.47
2022-11-24T07:18:01.933Z,96.47
2022-11-24T07:19:01.905Z,96.58
2022-11-24T07:20:01.894Z,96.83
2022-11-24T07:21:01.885Z,96.83
2022-11-24T07:22:01.922Z,96.83
2022-11-24T07:23:01.864Z,96.83
2022-11-24T07:24:01.857Z,96.72
2022-11-24T07:25:01.845Z,96.52
2022-11-24T07:26:06.548Z,96.62
2022-11-24T07:27:02.833Z,96.62
2022-11-24T07:28:01.868Z,96.31
2022-11-24T07:29:01.818Z,96.21
2022-11-24T07:30:01.802Z,96.11
2022-11-24T07:31:01.807Z,96.00
2022-11-24T07:32:05.441Z,96.00
2022-11-24T07:33:01.759Z,95.90
2022-11-24T07:34:01.744Z,95.80
2022-11-24T07:35:01.805Z,95.70
2022-11-24T07:36:01.726Z,95.80
2022-11-24T07:37:01.916Z,95.74
2022-11-24T07:38:01.698Z,95.84
2022-11-24T07:39:01.694Z,95.95
2022-11-24T07:40:01.668Z,95.95
2022-11-24T07:41:01.667Z,96.05
2022-11-24T07:42:01.657Z,96.05
2022-11-24T07:43:01.679Z,96.15
2022-11-24T07:44:01.668Z,96.25
2022-11-24T07:45:01.699Z,96.25
2022-11-24T07:46:01.745Z,95.84
2022-11-24T07:47:01.616Z,95.53
2022-11-24T07:48:01.597Z,95.53
2022-11-24T07:49:01.579Z,95.33
2022-11-24T07:50:01.568Z,95.33
2022-11-24T07:51:01.559Z,95.33
2022-11-24T07:52:01.549Z,95.53
2022-11-24T07:53:01.538Z,95.74
2022-11-24T07:54:01.552Z,95.95
2022-11-24T07:55:01.514Z,95.95
2022-11-24T07:56:01.499Z,96.20
2022-11-24T07:57:01.509Z,96.30
2022-11-24T07:59:47.241Z,96.41
2022-11-24T08:00:47.231Z,96.30
2022-11-24T08:01:47.276Z,96.20
2022-11-24T08:02:47.912Z,96.09
2022-11-24T08:03:47.249Z,96.09
2022-11-24T08:04:47.185Z,95.99
2022-11-24T08:06:16.119Z,96.09
2022-11-24T08:06:48.173Z,96.09
2022-11-24T08:07:47.241Z,96.09
2022-11-24T08:08:47.148Z,96.05
2022-11-24T08:09:47.126Z,96.05
2022-11-24T08:10:47.113Z,96.15
2022-11-24T08:11:47.117Z,96.30
2022-11-24T08:12:47.095Z,96.25
2022-11-24T08:13:47.093Z,96.15
2022-11-24T08:14:47.092Z,96.25
2022-11-24T08:15:47.074Z,96.25
2022-11-24T08:16:47.137Z,96.36
2022-11-24T08:17:47.043Z,96.25
2022-11-24T08:18:47.033Z,96.36
2022-11-24T08:19:47.024Z,96.46
2022-11-24T08:20:47.013Z,96.36
2022-11-24T08:21:47.004Z,96.46
2022-11-24T08:22:46.996Z,96.46
2022-11-24T08:23:46.998Z,96.25
2022-11-24T08:24:46.965Z,96.15
2022-11-24T08:25:46.963Z,96.15
2022-11-24T08:26:46.982Z,96.05
2022-11-24T08:27:46.936Z,96.05
2022-11-24T08:28:46.934Z,96.05
2022-11-24T08:29:46.906Z,95.95
2022-11-24T08:30:46.895Z,95.95
2022-11-24T08:31:46.986Z,96.05
2022-11-24T08:32:46.906Z,96.15
2022-11-24T08:33:46.867Z,96.15
2022-11-24T08:34:46.855Z,96.15
2022-11-24T08:35:46.846Z,96.36
2022-11-24T08:36:46.837Z,96.31
2022-11-24T08:37:46.841Z,95.90
2022-11-24T08:38:46.836Z,95.90
2022-11-24T08:39:46.806Z,95.90
2022-11-24T08:40:46.815Z,96.00
2022-11-24T08:41:46.809Z,95.90
2022-11-24T08:42:46.778Z,95.86
2022-11-24T08:43:46.766Z,95.96
2022-11-24T08:44:46.749Z,95.86
2022-11-24T08:45:46.803Z,95.55
2022-11-24T08:46:46.729Z,95.09
2022-11-24T08:47:46.740Z,95.50
2022-11-24T08:48:46.710Z,95.81
2022-11-24T08:49:46.791Z,95.46
2022-11-24T08:50:46.689Z,94.64
2022-11-24T08:51:46.760Z,94.59
2022-11-24T08:52:46.689Z,94.08
2022-11-24T08:53:46.649Z,93.67
2022-11-24T08:54:46.648Z,93.73
2022-11-24T08:55:46.630Z,93.83
2022-11-24T08:56:46.620Z,92.60
2022-11-24T08:57:46.629Z,93.63
2022-11-24T08:58:46.634Z,93.73
2022-11-24T08:59:46.584Z,92.80
2022-11-24T09:00:46.572Z,92.76
2022-11-24T09:01:46.593Z,92.35
2022-11-24T09:02:46.586Z,91.74
2022-11-24T09:03:50.410Z,91.80
2022-11-24T09:04:46.603Z,90.67
2022-11-24T09:05:53.681Z,90.87
2022-11-24T09:06:47.503Z,90.46
2022-11-24T09:07:46.582Z,90.97
2022-11-24T09:08:46.507Z,90.87
2022-11-24T09:09:46.472Z,90.87
2022-11-24T09:10:46.480Z,90.77
2022-11-24T09:11:46.475Z,90.30
2022-11-24T09:12:46.479Z,90.71
2022-11-24T09:13:46.493Z,90.71
2022-11-24T09:14:46.426Z,91.74
2022-11-24T09:15:46.405Z,92.25
2022-11-24T09:16:46.433Z,91.74
2022-11-24T09:17:46.403Z,91.63
2022-11-24T09:18:46.374Z,91.74
2022-11-24T09:19:46.366Z,91.74
2022-11-24T09:20:46.355Z,92.04
2022-11-24T09:21:46.347Z,92.10
2022-11-24T09:22:46.336Z,92.35
2022-11-24T09:23:46.326Z,92.04
2022-11-24T09:24:46.305Z,91.80
2022-11-24T09:25:46.306Z,92.10
2022-11-24T09:26:47.939Z,91.80
2022-11-24T09:27:46.286Z,91.69
2022-11-24T09:28:46.257Z,91.80
2022-11-24T09:29:46.257Z,91.38
2022-11-24T09:30:46.370Z,91.80
2022-11-24T09:31:46.248Z,92.31
2022-11-24T09:32:46.248Z,92.10
2022-11-24T09:33:46.212Z,90.36
2022-11-24T09:34:46.206Z,91.35
2022-11-24T09:35:46.189Z,91.14
2022-11-24T09:36:46.172Z,90.17
2022-11-24T09:37:46.179Z,90.69
2022-11-24T09:38:46.153Z,90.28
2022-11-24T09:39:46.211Z,90.28
2022-11-24T09:40:46.130Z,90.58
2022-11-24T09:41:46.131Z,89.87
2022-11-24T09:42:52.089Z,88.53
2022-11-24T09:43:47.109Z,87.71
2022-11-24T09:44:46.091Z,88.43
2022-11-24T09:46:47.146Z,88.64
2022-11-24T09:47:46.082Z,89.21
2022-11-24T09:48:46.039Z,89.62
2022-11-24T09:49:50.945Z,89.42
2022-11-24T09:50:47.031Z,88.80
2022-11-24T09:51:46.013Z,88.29
2022-11-24T09:52:46.001Z,88.49
2022-11-24T09:53:46.013Z,87.88
2022-11-24T09:54:45.975Z,88.18
2022-11-24T09:55:46.012Z,87.77
2022-11-24T09:56:45.954Z,87.88
2022-11-24T09:57:45.949Z,87.88
2022-11-24T09:58:45.942Z,87.98
2022-11-24T09:59:45.930Z,87.88
2022-11-24T10:00:45.924Z,88.29
2022-11-24T10:01:46.015Z,87.06
2022-11-24T10:02:45.894Z,87.77
2022-11-24T10:03:45.894Z,88.39
2022-11-24T10:04:46.051Z,87.88
2022-11-24T10:05:45.874Z,88.90
2022-11-24T10:06:45.842Z,87.73
2022-11-24T10:07:45.896Z,87.94
2022-11-24T10:08:45.836Z,86.36
2022-11-24T10:09:45.814Z,86.88
2022-11-24T10:10:45.855Z,86.67
2022-11-24T10:11:45.806Z,86.53
2022-11-24T10:12:45.775Z,86.94
2022-11-24T10:13:45.784Z,87.55
2022-11-24T10:14:45.755Z,87.14
2022-11-24T10:15:45.820Z,87.45
2022-11-24T10:16:45.736Z,87.24
2022-11-24T10:17:45.727Z,87.14
2022-11-24T10:18:45.718Z,87.65
2022-11-24T10:19:45.712Z,86.63
2022-11-24T10:20:45.688Z,87.24
2022-11-24T10:21:45.685Z,87.14
2022-11-24T10:22:45.668Z,86.12
2022-11-24T10:23:45.670Z,85.71
2022-11-24T10:24:45.658Z,86.49
2022-11-24T10:25:45.639Z,86.38
2022-11-24T10:26:45.671Z,85.26
2022-11-24T10:27:45.682Z,85.97
2022-11-24T10:28:45.860Z,86.35
2022-11-24T10:29:45.599Z,85.22
2022-11-24T10:30:45.607Z,85.12
2022-11-24T10:31:45.573Z,85.22
2022-11-24T10:32:45.553Z,83.79
2022-11-24T10:33:45.562Z,83.65
2022-11-24T10:34:45.535Z,83.75
2022-11-24T10:35:45.526Z,80.24
2022-11-24T10:36:45.622Z,80.96
2022-11-24T10:37:45.513Z,80.75
2022-11-24T10:38:45.614Z,80.04
2022-11-24T10:39:45.494Z,79.18
2022-11-24T10:41:00.930Z,78.77
2022-11-24T10:41:46.468Z,79.69
2022-11-24T10:42:45.444Z,79.80
2022-11-24T10:43:45.455Z,80.71
2022-11-24T10:44:45.450Z,80.20
2022-11-24T10:45:45.416Z,79.59
2022-11-24T10:46:45.561Z,78.23
2022-11-24T10:47:45.405Z,78.53
2022-11-24T10:48:45.423Z,78.74
2022-11-24T10:49:45.368Z,78.94
2022-11-24T10:50:45.463Z,78.33
2022-11-24T10:51:45.357Z,78.64
2022-11-24T10:52:45.350Z,77.11
2022-11-24T10:53:45.354Z,78.02
2022-11-24T10:54:45.352Z,77.89
2022-11-24T10:55:45.312Z,78.80
2022-11-24T10:56:45.294Z,77.48
2022-11-24T10:57:45.291Z,76.05
2022-11-24T10:58:45.285Z,75.85
2022-11-24T10:59:45.262Z,76.46
2022-11-24T11:00:45.256Z,77.89
2022-11-24T11:01:45.288Z,77.98
2022-11-24T11:02:45.385Z,78.19
2022-11-24T11:03:45.224Z,76.15
2022-11-24T11:04:45.245Z,76.76
2022-11-24T11:05:45.233Z,76.62
2022-11-24T11:06:45.189Z,77.75
2022-11-24T11:07:45.213Z,75.81
2022-11-24T11:08:45.176Z,76.93
2022-11-24T11:09:45.158Z,76.93
2022-11-24T11:10:45.190Z,76.01
2022-11-24T11:11:45.130Z,75.81
2022-11-24T11:12:45.406Z,76.01
2022-11-24T11:13:45.119Z,74.79
2022-11-24T11:14:45.106Z,75.71
2022-11-24T11:15:45.125Z,75.51
2022-11-24T11:16:45.100Z,76.12
2022-11-24T11:17:45.069Z,77.30
2022-11-24T11:18:45.062Z,76.90
2022-11-24T11:19:49.762Z,75.78
2022-11-24T11:20:46.039Z,75.88
2022-11-24T11:21:45.023Z,73.94
2022-11-24T11:22:45.023Z,74.65
2022-11-24T11:23:45.011Z,76.39
2022-11-24T11:24:44.993Z,76.39
2022-11-24T11:25:44.983Z,75.37
2022-11-24T11:26:44.993Z,76.39
2022-11-24T11:27:44.962Z,75.67
2022-11-24T11:28:44.973Z,75.06
2022-11-24T11:34:02.743Z,74.01
2022-11-24T11:34:03.310Z,72.17
2022-11-24T11:34:45.889Z,72.89
2022-11-24T11:35:44.880Z,73.80
2022-11-24T11:36:44.942Z,74.32
2022-11-24T11:37:44.849Z,74.11
2022-11-24T11:38:44.851Z,73.91
2022-11-24T11:39:48.609Z,74.41
2022-11-24T11:40:44.823Z,74.11
2022-11-24T11:41:44.811Z,74.62
2022-11-24T11:43:45.870Z,72.14
2022-11-24T11:44:44.953Z,73.06
2022-11-24T11:45:44.780Z,71.73
2022-11-24T11:46:44.771Z,71.94
2022-11-24T11:47:44.735Z,73.47
2022-11-24T11:48:44.759Z,73.77
2022-11-24T11:49:44.723Z,73.36
2022-11-24T11:51:07.025Z,70.41
2022-11-24T11:51:45.756Z,71.43
2022-11-24T11:52:44.686Z,70.51
2022-11-24T11:53:44.697Z,71.53
2022-11-24T11:54:44.658Z,69.90
2022-11-24T11:55:49.663Z,70.82
2022-11-24T11:56:45.641Z,70.82
2022-11-24T11:57:44.630Z,72.96
2022-11-24T11:58:44.621Z,73.36
2022-11-24T11:59:44.624Z,72.41
2022-11-24T12:00:44.599Z,72.01
2022-11-24T12:01:44.589Z,72.41
2022-11-24T12:02:49.928Z,71.60
2022-11-24T12:03:45.686Z,71.91
2022-11-24T12:04:44.557Z,71.91
2022-11-24T12:05:44.542Z,72.21
2022-11-24T12:06:44.532Z,72.21
2022-11-24T12:07:44.585Z,71.30
2022-11-24T12:09:17.932Z,70.68
2022-11-24T12:09:45.535Z,69.57
2022-11-24T12:10:44.494Z,70.38
2022-11-24T12:11:44.473Z,71.80
2022-11-24T12:12:44.466Z,72.01
2022-11-24T12:13:44.468Z,69.57
2022-11-24T12:14:44.466Z,71.91
2022-11-24T12:15:44.476Z,70.58
2022-11-24T12:16:44.444Z,70.55
2022-11-24T12:17:44.407Z,70.65
2022-11-24T12:18:59.724Z,71.06
2022-11-24T12:19:45.400Z,70.14
2022-11-24T12:20:44.388Z,70.25
2022-11-24T12:21:44.369Z,69.74
2022-11-24T12:22:44.417Z,70.04
2022-11-24T12:23:44.352Z,69.94
2022-11-24T12:24:44.408Z,68.72
2022-11-24T12:25:44.321Z,69.23
2022-11-24T12:26:44.320Z,69.13
2022-11-24T12:27:44.300Z,69.94
2022-11-24T12:28:44.303Z,68.72
2022-11-24T12:29:44.292Z,68.92
2022-11-24T12:30:44.272Z,69.94
2022-11-24T12:31:44.306Z,70.72
2022-11-24T12:32:44.256Z,70.42
2022-11-24T12:33:49.240Z,71.84
2022-11-24T12:34:45.242Z,71.12
2022-11-24T12:35:44.229Z,70.52
2022-11-24T12:36:44.207Z,69.91
2022-11-24T12:37:44.198Z,68.52
2022-11-24T12:38:44.186Z,69.64
2022-11-24T12:39:44.177Z,69.74
2022-11-24T12:40:47.166Z,69.13
2022-11-24T12:41:44.160Z,68.32
2022-11-24T12:42:44.139Z,68.32
2022-11-24T12:43:44.129Z,69.74
2022-11-24T12:44:44.139Z,69.23
2022-11-24T12:45:44.112Z,68.62
2022-11-24T12:46:44.127Z,68.89
2022-11-24T12:47:44.082Z,69.20
2022-11-24T12:48:44.072Z,68.99
2022-11-24T12:49:44.080Z,69.60
2022-11-24T12:50:44.063Z,68.89
2022-11-24T12:51:44.053Z,68.69
2022-11-24T12:52:44.032Z,67.47
2022-11-24T12:53:44.023Z,68.08
2022-11-24T12:54:44.025Z,68.99
2022-11-24T12:55:43.998Z,69.81
2022-11-24T12:56:44.031Z,69.09
2022-11-24T12:57:43.983Z,69.30
2022-11-24T12:58:43.977Z,69.09